createdAt,value
2019-04-03T00:02:23.543Z,7.25
2019-04-03T00:04:54.014Z,7.17
2019-04-03T00:07:24.871Z,7.14
2019-04-03T00:09:55.522Z,7.32
2019-04-03T00:12:26.226Z,7.36
2019-04-03T00:14:57.915Z,7.28
2019-04-03T00:17:28.711Z,7.40
2019-04-03T00:19:59.364Z,7.50
2019-04-03T00:22:30.054Z,7.55
2019-04-03T00:25:00.619Z,7.52
2019-04-03T00:27:31.211Z,7.45
2019-04-03T00:30:01.770Z,7.48
2019-04-03T00:32:32.790Z,7.41
2019-04-03T00:35:04.250Z,7.42
2019-04-03T00:37:34.784Z,7.47
2019-04-03T00:40:06.991Z,7.27
2019-04-03T00:42:38.022Z,6.98
2019-04-03T00:45:08.624Z,7.00
2019-04-03T00:47:39.225Z,6.94
2019-04-03T00:50:09.741Z,6.80
2019-04-03T00:52:40.332Z,6.86
2019-04-03T00:55:11.033Z,6.71
2019-04-03T00:57:41.506Z,6.52
2019-04-03T01:00:15.483Z,6.52
2019-04-03T01:02:46.079Z,6.36
2019-04-03T01:05:16.829Z,6.42
2019-04-03T01:07:47.332Z,6.51
2019-04-03T01:10:17.951Z,6.57
2019-04-03T01:12:49.152Z,6.61
2019-04-03T01:15:19.638Z,6.61
2019-04-03T01:17:50.135Z,6.63
2019-04-03T01:20:22.356Z,6.64
2019-04-03T01:22:52.852Z,6.72
2019-04-03T01:25:23.477Z,6.78
2019-04-03T01:27:54.261Z,6.80
2019-04-03T01:30:24.847Z,6.71
2019-04-03T01:32:55.739Z,6.75
2019-04-03T01:35:26.184Z,6.83
2019-04-03T01:37:56.900Z,6.79
2019-04-03T01:40:27.463Z,6.78
2019-04-03T01:42:58.188Z,6.77
2019-04-03T01:45:29.075Z,6.79
2019-04-03T01:47:59.535Z,6.72
2019-04-03T01:50:30.335Z,6.72
2019-04-03T01:53:02.434Z,6.82
2019-04-03T01:55:34.741Z,6.85
2019-04-03T01:58:06.557Z,6.77
2019-04-03T02:00:38.221Z,6.79
2019-04-03T02:03:10.254Z,6.83
2019-04-03T02:05:43.039Z,6.79
2019-04-03T02:08:15.145Z,6.75
2019-04-03T02:10:48.245Z,6.79
2019-04-03T02:13:17.747Z,6.80
2019-04-03T02:15:48.500Z,6.72
2019-04-03T02:18:18.980Z,6.63
2019-04-03T02:20:49.464Z,6.61
2019-04-03T02:23:20.044Z,6.58
2019-04-03T02:25:50.645Z,6.61
2019-04-03T02:28:21.357Z,6.53
2019-04-03T02:30:51.865Z,6.52
2019-04-03T02:33:22.553Z,6.52
2019-04-03T02:35:53.487Z,6.55
2019-04-03T02:38:23.982Z,6.57
2019-04-03T02:40:54.818Z,6.55
2019-04-03T02:43:25.394Z,6.58
2019-04-03T02:45:56.932Z,6.58
2019-04-03T02:48:29.272Z,6.52
2019-04-03T02:51:00.601Z,6.49
2019-04-03T02:53:31.312Z,6.49
2019-04-03T02:56:01.924Z,6.44
2019-04-03T02:58:32.485Z,6.34
2019-04-03T03:01:05.972Z,6.33
2019-04-03T03:03:35.264Z,6.35
2019-04-03T03:06:05.673Z,6.38
2019-04-03T03:08:40.503Z,6.36
2019-04-03T03:11:08.840Z,6.42
2019-04-03T03:13:39.197Z,6.35
2019-04-03T03:16:11.927Z,6.46
2019-04-03T03:18:42.397Z,6.31
2019-04-03T03:21:14.283Z,6.29
2019-04-03T03:23:44.983Z,6.20
2019-04-03T03:26:15.490Z,6.11
2019-04-03T03:28:47.450Z,6.13
2019-04-03T03:31:19.084Z,6.12
2019-04-03T03:33:50.141Z,6.06
2019-04-03T03:36:24.921Z,6.01
2019-04-03T03:38:52.998Z,6.04
2019-04-03T03:41:24.772Z,5.96
2019-04-03T03:43:55.270Z,5.94
2019-04-03T03:46:27.888Z,5.81
2019-04-03T03:48:58.173Z,5.79
2019-04-03T03:51:31.137Z,5.80
2019-04-03T03:54:01.180Z,5.79
2019-04-03T03:56:32.686Z,5.79
2019-04-03T03:59:03.712Z,5.76
2019-04-03T04:01:34.526Z,5.70
2019-04-03T04:04:05.391Z,5.76
2019-04-03T04:06:36.687Z,5.69
2019-04-03T04:09:08.405Z,5.70
2019-04-03T04:11:38.878Z,5.68
2019-04-03T04:14:09.542Z,5.75
2019-04-03T04:16:40.094Z,5.61
2019-04-03T04:19:11.057Z,5.56
2019-04-03T04:21:43.994Z,5.52
2019-04-03T04:24:14.084Z,5.47
2019-04-03T04:26:44.719Z,5.37
2019-04-03T04:29:15.246Z,5.34
2019-04-03T04:31:45.709Z,5.35
2019-04-03T04:34:18.295Z,5.27
2019-04-03T04:36:48.404Z,5.30
2019-04-03T04:39:18.809Z,5.31
2019-04-03T04:41:49.263Z,5.40
2019-04-03T04:44:20.170Z,5.32
2019-04-03T04:46:50.874Z,5.31
2019-04-03T04:49:22.716Z,5.28
2019-04-03T04:51:56.492Z,5.33
2019-04-03T04:54:26.188Z,5.35
2019-04-03T04:56:56.656Z,5.36
2019-04-03T04:59:27.282Z,5.42
2019-04-03T05:01:57.808Z,5.50
2019-04-03T05:04:28.502Z,5.49
2019-04-03T05:07:00.118Z,5.59
2019-04-03T05:09:31.408Z,5.62
2019-04-03T05:12:03.588Z,5.61
2019-04-03T05:14:34.430Z,5.68
2019-04-03T05:17:06.537Z,5.71
2019-04-03T05:19:37.374Z,5.84
2019-04-03T05:22:08.151Z,5.85
2019-04-03T05:24:38.727Z,5.91
2019-04-03T05:27:11.956Z,6.02
2019-04-03T05:29:42.840Z,6.07
2019-04-03T05:32:13.565Z,6.20
2019-04-03T05:34:44.707Z,6.27
2019-04-03T05:37:15.148Z,6.42
2019-04-03T05:39:45.832Z,6.53
2019-04-03T05:42:16.546Z,6.60
2019-04-03T05:44:47.046Z,6.70
2019-04-03T05:47:17.473Z,6.86
2019-04-03T05:49:50.763Z,6.95
2019-04-03T05:52:20.458Z,7.13
2019-04-03T05:54:51.897Z,7.35
2019-04-03T05:57:22.672Z,7.40
2019-04-03T06:00:01.019Z,7.58
2019-04-03T06:02:26.168Z,7.66
2019-04-03T06:04:57.671Z,7.83
2019-04-03T06:07:27.958Z,8.14
2019-04-03T06:09:59.201Z,8.18
2019-04-03T06:12:30.454Z,8.27
2019-04-03T06:15:02.027Z,8.36
2019-04-03T06:17:33.635Z,8.38
2019-04-03T06:20:05.983Z,8.64
2019-04-03T06:22:36.727Z,8.78
2019-04-03T06:25:07.207Z,8.69
2019-04-03T06:27:40.712Z,8.91
2019-04-03T06:30:10.040Z,9.24
2019-04-03T06:32:40.587Z,9.15
2019-04-03T06:35:13.277Z,9.23
2019-04-03T06:37:43.330Z,9.41
2019-04-03T06:40:14.184Z,9.46
2019-04-03T06:42:45.617Z,9.66
2019-04-03T06:45:16.862Z,9.75
2019-04-03T06:47:47.495Z,10.17
2019-04-03T06:50:18.423Z,10.31
2019-04-03T06:52:49.195Z,10.40
2019-04-03T06:55:21.246Z,10.48
2019-04-03T06:57:51.937Z,10.39
2019-04-03T07:00:22.668Z,10.51
2019-04-03T07:02:53.164Z,10.60
2019-04-03T07:05:24.182Z,10.93
2019-04-03T07:07:56.345Z,11.89
2019-04-03T07:10:26.926Z,12.61
2019-04-03T07:12:57.699Z,12.69
2019-04-03T07:15:28.574Z,14.25
2019-04-03T07:18:01.653Z,15.23
2019-04-03T07:20:32.604Z,14.82
2019-04-03T07:23:03.418Z,14.83
2019-04-03T07:25:34.680Z,14.36
2019-04-03T07:28:08.586Z,13.98
2019-04-03T07:30:38.078Z,14.81
2019-04-03T07:33:08.724Z,14.45
2019-04-03T07:35:40.462Z,14.37
2019-04-03T07:38:11.284Z,15.02
2019-04-03T07:40:42.069Z,15.94
2019-04-03T07:43:12.616Z,15.54
2019-04-03T07:45:44.034Z,15.28
2019-04-03T07:48:14.546Z,15.28
2019-04-03T07:50:45.413Z,16.24
2019-04-03T07:53:16.027Z,16.98
2019-04-03T07:55:47.142Z,17.07
2019-04-03T07:58:17.750Z,17.32
2019-04-03T08:00:50.320Z,17.67
2019-04-03T08:03:21.605Z,17.62
2019-04-03T08:05:55.438Z,17.32
2019-04-03T08:08:25.492Z,17.03
2019-04-03T08:10:56.633Z,16.49
2019-04-03T08:13:27.399Z,16.99
2019-04-03T08:15:58.257Z,17.20
2019-04-03T08:18:30.492Z,17.09
2019-04-03T08:21:02.241Z,17.03
2019-04-03T08:23:32.925Z,17.10
2019-04-03T08:26:04.115Z,17.56
2019-04-03T08:28:40.991Z,18.66
2019-04-03T08:31:13.461Z,18.00
2019-04-03T08:33:44.475Z,18.86
2019-04-03T08:36:24.331Z,19.09
2019-04-03T08:38:47.562Z,18.36
2019-04-03T08:41:22.137Z,18.69
2019-04-03T08:43:55.187Z,18.85
2019-04-03T08:46:26.306Z,19.24
2019-04-03T08:48:56.840Z,18.98
2019-04-03T08:51:27.607Z,18.39
2019-04-03T08:53:58.678Z,18.47
2019-04-03T08:56:29.474Z,18.18
2019-04-03T08:59:00.621Z,17.65
2019-04-03T09:01:31.974Z,17.97
2019-04-03T09:04:02.859Z,18.28
2019-04-03T09:06:33.972Z,18.05
2019-04-03T09:09:08.296Z,16.98
2019-04-03T09:11:39.429Z,17.08
2019-04-03T09:14:10.492Z,17.43
2019-04-03T09:16:41.318Z,17.86
2019-04-03T09:19:12.722Z,18.35
2019-04-03T09:21:50.176Z,19.19
2019-04-03T09:24:21.120Z,19.14
2019-04-03T09:26:51.969Z,18.51
2019-04-03T09:29:23.651Z,17.77
2019-04-03T09:31:56.506Z,18.19
2019-04-03T09:34:29.954Z,18.23
2019-04-03T09:37:05.834Z,18.26
2019-04-03T09:39:37.460Z,18.07
2019-04-03T09:42:10.527Z,17.95
2019-04-03T09:44:43.169Z,17.86
2019-04-03T09:47:15.391Z,17.91
2019-04-03T09:49:46.414Z,18.46
2019-04-03T09:52:17.753Z,18.61
2019-04-03T09:54:50.162Z,18.74
2019-04-03T09:57:21.336Z,19.05
2019-04-03T09:59:52.621Z,19.62
2019-04-03T10:02:24.778Z,18.27
2019-04-03T10:04:58.503Z,19.11
2019-04-03T10:07:31.156Z,19.14
2019-04-03T10:10:02.276Z,19.25
2019-04-03T10:12:35.354Z,19.88
2019-04-03T10:15:08.444Z,19.54
2019-04-03T10:17:41.332Z,19.34
2019-04-03T10:20:15.027Z,19.36
2019-04-03T10:22:50.658Z,20.08
2019-04-03T10:25:21.572Z,19.44
2019-04-03T10:27:52.491Z,20.00
2019-04-03T10:30:23.051Z,19.55
2019-04-03T10:32:53.951Z,20.51
2019-04-03T10:35:24.473Z,20.43
2019-04-03T10:37:55.604Z,20.42
2019-04-03T10:40:26.757Z,20.50
2019-04-03T10:43:00.014Z,20.82
2019-04-03T10:45:32.588Z,19.65
2019-04-03T10:48:04.357Z,20.65
2019-04-03T10:50:37.529Z,20.59
2019-04-03T10:53:07.610Z,20.25
2019-04-03T10:55:38.455Z,20.42
2019-04-03T10:58:09.221Z,19.67
2019-04-03T11:00:40.237Z,19.46
2019-04-03T11:03:10.907Z,19.74
2019-04-03T11:05:42.654Z,20.50
2019-04-03T11:08:15.065Z,20.22
2019-04-03T11:10:49.394Z,20.05
2019-04-03T11:13:21.359Z,20.25
2019-04-03T11:15:54.716Z,20.33
2019-04-03T11:18:26.033Z,20.93
2019-04-03T11:20:58.472Z,20.66
2019-04-03T11:23:37.820Z,21.06
2019-04-03T11:26:02.685Z,20.75
2019-04-03T11:28:36.664Z,20.31
2019-04-03T11:31:08.669Z,20.83
2019-04-03T11:33:44.763Z,20.85
2019-04-03T11:36:15.430Z,20.72
2019-04-03T11:38:46.410Z,21.19
2019-04-03T11:41:19.862Z,21.04
2019-04-03T11:43:51.354Z,20.73
2019-04-03T11:46:22.358Z,20.69
2019-04-03T11:48:54.307Z,20.04
2019-04-03T11:51:29.610Z,20.45
2019-04-03T11:54:00.637Z,20.47
2019-04-03T11:56:31.357Z,20.47
2019-04-03T11:59:02.393Z,21.10
2019-04-03T12:01:33.244Z,20.38
2019-04-03T12:04:04.357Z,20.44
2019-04-03T12:06:35.353Z,20.59
2019-04-03T12:09:07.961Z,20.74
2019-04-03T12:11:40.081Z,20.06
2019-04-03T12:14:11.685Z,20.27
2019-04-03T12:16:42.762Z,19.54
2019-04-03T12:19:15.015Z,19.47
2019-04-03T12:21:45.620Z,19.56
2019-04-03T12:24:16.642Z,19.73
2019-04-03T12:26:50.482Z,19.58
2019-04-03T12:29:21.909Z,19.24
2019-04-03T12:31:53.750Z,19.27
2019-04-03T12:34:25.076Z,19.82
2019-04-03T12:36:58.094Z,20.10
2019-04-03T12:39:30.896Z,20.35
2019-04-03T12:42:02.698Z,20.19
2019-04-03T12:44:33.700Z,20.19
2019-04-03T12:47:07.021Z,20.24
2019-04-03T12:49:37.446Z,20.75
2019-04-03T12:52:08.252Z,20.34
2019-04-03T12:54:39.135Z,20.69
2019-04-03T12:57:09.898Z,20.52
2019-04-03T12:59:40.799Z,20.61
2019-04-03T13:02:11.639Z,20.70
2019-04-03T13:04:42.623Z,20.55
2019-04-03T13:07:14.482Z,20.52
2019-04-03T13:09:45.585Z,20.58
2019-04-03T13:12:16.507Z,20.89
2019-04-03T13:14:49.423Z,20.73
2019-04-03T13:17:21.143Z,20.73
2019-04-03T13:19:52.215Z,20.59
2019-04-03T13:22:23.464Z,20.85
2019-04-03T13:24:55.266Z,20.96
2019-04-03T13:27:25.814Z,21.21
2019-04-03T13:29:57.198Z,21.17
2019-04-03T13:32:28.006Z,20.83
2019-04-03T13:34:59.509Z,20.78
2019-04-03T13:37:30.789Z,21.16
2019-04-03T13:40:01.678Z,20.95
2019-04-03T13:42:34.347Z,20.91
2019-04-03T13:45:07.641Z,21.14
2019-04-03T13:47:41.079Z,21.13
2019-04-03T13:50:11.686Z,21.03
2019-04-03T13:52:47.796Z,20.61
2019-04-03T13:55:15.600Z,20.52
2019-04-03T13:57:46.956Z,20.58
2019-04-03T14:00:22.573Z,20.12
2019-04-03T14:02:52.062Z,20.07
2019-04-03T14:05:23.020Z,20.07
2019-04-03T14:07:54.413Z,20.22
2019-04-03T14:10:27.005Z,20.25
2019-04-03T14:12:58.312Z,20.18
2019-04-03T14:15:29.251Z,20.07
2019-04-03T14:17:59.767Z,20.32
2019-04-03T14:20:31.010Z,20.19
2019-04-03T14:23:03.890Z,20.42
2019-04-03T14:25:37.969Z,20.47
2019-04-03T14:28:09.045Z,20.35
2019-04-03T14:30:40.687Z,20.24
2019-04-03T14:33:13.722Z,19.97
2019-04-03T14:35:49.953Z,19.93
2019-04-03T14:38:17.022Z,20.26
2019-04-03T14:40:48.535Z,20.09
2019-04-03T14:43:19.117Z,20.31
2019-04-03T14:45:51.920Z,20.41
2019-04-03T14:48:25.507Z,20.40
2019-04-03T14:50:56.529Z,20.46
2019-04-03T14:53:27.937Z,20.19
2019-04-03T14:56:00.342Z,19.88
2019-04-03T14:58:31.316Z,19.81
2019-04-03T15:01:02.505Z,20.04
2019-04-03T15:03:34.418Z,20.05
2019-04-03T15:06:05.831Z,19.92
2019-04-03T15:08:36.945Z,20.00
2019-04-03T15:11:07.840Z,19.58
2019-04-03T15:13:39.928Z,19.62
2019-04-03T15:16:10.958Z,19.52
2019-04-03T15:18:42.965Z,19.37
2019-04-03T15:21:14.038Z,19.37
2019-04-03T15:23:47.432Z,19.44
2019-04-03T15:26:21.774Z,19.57
2019-04-03T15:28:51.375Z,19.53
2019-04-03T15:31:24.374Z,19.40
2019-04-03T15:33:56.059Z,19.32
2019-04-03T15:36:27.275Z,19.45
2019-04-03T15:38:59.781Z,19.36
2019-04-03T15:41:33.691Z,19.34
2019-04-03T15:44:03.777Z,19.49
2019-04-03T15:46:35.119Z,19.50
2019-04-03T15:49:06.506Z,19.57
2019-04-03T15:51:38.849Z,19.30
2019-04-03T15:54:12.859Z,19.19
2019-04-03T15:59:20.862Z,18.83
2019-04-03T16:01:51.703Z,18.73
2019-04-03T16:04:22.863Z,18.68
2019-04-03T16:06:53.688Z,18.60
2019-04-03T16:09:24.715Z,18.48
2019-04-03T16:11:56.209Z,18.24
2019-04-03T16:14:29.118Z,18.19
2019-04-03T16:17:01.739Z,18.21
2019-04-03T16:19:32.673Z,18.05
2019-04-03T16:22:03.759Z,18.05
2019-04-03T16:24:35.309Z,17.97
2019-04-03T16:27:08.316Z,17.91
2019-04-03T16:29:40.370Z,17.82
2019-04-03T16:32:11.878Z,17.70
2019-04-03T16:34:42.871Z,17.63
2019-04-03T16:37:16.666Z,17.60
2019-04-03T16:39:47.101Z,17.53
2019-04-03T16:42:19.100Z,17.50
2019-04-03T16:44:49.984Z,17.33
2019-04-03T16:47:20.794Z,17.23
2019-04-03T16:49:52.045Z,17.03
2019-04-03T16:52:24.434Z,16.96
2019-04-03T16:54:57.329Z,16.73
2019-04-03T16:57:29.248Z,16.71
2019-04-03T17:00:00.321Z,16.54
2019-04-03T17:02:31.195Z,16.51
2019-04-03T17:05:02.960Z,16.39
2019-04-03T17:07:36.796Z,16.31
2019-04-03T17:10:09.901Z,16.29
2019-04-03T17:12:45.309Z,16.24
2019-04-03T17:15:14.907Z,16.13
2019-04-03T17:17:47.547Z,16.14
2019-04-03T17:20:18.597Z,16.03
2019-04-03T17:22:51.310Z,15.95
2019-04-03T17:25:23.383Z,15.86
2019-04-03T17:27:57.684Z,15.72
2019-04-03T17:30:29.616Z,15.69
2019-04-03T17:33:02.842Z,15.63
2019-04-03T17:35:33.978Z,15.52
2019-04-03T17:38:04.941Z,15.45
2019-04-03T17:40:36.527Z,15.46
2019-04-03T17:43:08.718Z,15.42
2019-04-03T17:45:41.885Z,15.53
2019-04-03T17:48:13.640Z,15.59
2019-04-03T17:50:44.774Z,15.45
2019-04-03T17:53:16.609Z,15.30
2019-04-03T17:55:48.514Z,15.12
2019-04-03T17:58:19.249Z,15.23
2019-04-03T18:00:52.152Z,15.13
2019-04-03T18:03:24.985Z,15.08
2019-04-03T18:05:56.989Z,15.07
2019-04-03T18:08:32.458Z,14.99
2019-04-03T18:11:02.372Z,14.91
2019-04-03T18:13:33.366Z,15.00
2019-04-03T18:16:04.080Z,15.00
2019-04-03T18:18:34.909Z,14.88
2019-04-03T18:21:08.908Z,14.88
2019-04-03T18:23:39.764Z,14.69
2019-04-03T18:26:11.590Z,14.84
2019-04-03T18:28:42.736Z,14.84
2019-04-03T18:31:15.876Z,14.81
2019-04-03T18:33:48.755Z,14.60
2019-04-03T18:36:19.891Z,14.82
2019-04-03T18:38:50.787Z,14.58
2019-04-03T18:41:22.002Z,14.66
2019-04-03T18:43:54.511Z,14.67
2019-04-03T18:46:32.390Z,14.60
2019-04-03T18:49:02.181Z,14.50
2019-04-03T18:51:36.460Z,14.50
2019-04-03T18:54:07.652Z,14.57
2019-04-03T18:56:40.180Z,14.55
2019-04-03T18:59:11.489Z,14.45
2019-04-03T19:01:42.354Z,14.47
2019-04-03T19:04:14.643Z,14.35
2019-04-03T19:06:45.888Z,14.55
2019-04-03T19:09:21.336Z,14.64
2019-04-03T19:11:52.523Z,14.57
2019-04-03T19:14:27.371Z,14.39
2019-04-03T19:16:57.143Z,14.37
2019-04-03T19:19:30.203Z,14.18
2019-04-03T19:22:01.668Z,14.13
2019-04-03T19:24:32.997Z,14.08
2019-04-03T19:27:05.269Z,14.09
2019-04-03T19:29:36.372Z,14.21
2019-04-03T19:32:07.333Z,14.13
2019-04-03T19:34:38.460Z,14.01
2019-04-03T19:37:08.947Z,14.05
2019-04-03T19:39:39.855Z,13.95
2019-04-03T19:42:13.191Z,13.99
2019-04-03T19:44:43.256Z,13.81
2019-04-03T19:47:15.232Z,13.85
2019-04-03T19:49:48.010Z,13.73
2019-04-03T19:52:18.663Z,13.63
2019-04-03T19:54:51.484Z,13.68
2019-04-03T19:57:22.862Z,13.65
2019-04-03T19:59:54.484Z,13.64
2019-04-03T20:02:25.080Z,13.67
2019-04-03T20:04:56.100Z,13.58
2019-04-03T20:07:27.914Z,13.61
2019-04-03T20:10:02.925Z,13.55
2019-04-03T20:12:33.097Z,13.38
2019-04-03T20:15:05.677Z,13.41
2019-04-03T20:17:36.900Z,13.31
2019-04-03T20:20:08.627Z,13.38
2019-04-03T20:22:42.398Z,13.24
2019-04-03T20:25:15.053Z,13.16
2019-04-03T20:27:51.342Z,13.07
2019-04-03T20:30:20.894Z,13.10
2019-04-03T20:32:54.187Z,13.02
2019-04-03T20:35:25.300Z,13.03
2019-04-03T20:37:57.066Z,13.09
2019-04-03T20:40:47.347Z,12.94
2019-04-03T20:43:19.384Z,13.02
2019-04-03T20:45:50.468Z,12.89
2019-04-03T20:48:22.494Z,12.86
2019-04-03T20:50:54.298Z,12.96
2019-04-03T20:53:24.942Z,12.98
2019-04-03T20:55:56.025Z,12.95
2019-04-03T20:58:28.130Z,12.84
2019-04-03T21:01:06.747Z,12.81
2019-04-03T21:03:31.342Z,12.73
2019-04-03T21:06:02.018Z,12.69
2019-04-03T21:08:32.732Z,12.61
2019-04-03T21:11:05.567Z,12.80
2019-04-03T21:13:39.454Z,12.59
2019-04-03T21:16:10.446Z,12.50
2019-04-03T21:18:42.704Z,12.41
2019-04-03T21:21:13.497Z,12.36
2019-04-03T21:23:44.198Z,12.31
2019-04-03T21:26:14.968Z,12.35
2019-04-03T21:28:45.455Z,12.32
2019-04-03T21:31:16.208Z,12.33
2019-04-03T21:33:46.886Z,12.27
2019-04-03T21:36:17.617Z,12.18
2019-04-03T21:38:48.354Z,12.18
2019-04-03T21:41:20.763Z,12.15
2019-04-03T21:43:52.276Z,12.02
2019-04-03T21:46:23.054Z,11.97
2019-04-03T21:48:53.624Z,12.02
2019-04-03T21:51:26.722Z,11.93
2019-04-03T21:53:57.139Z,11.84
2019-04-03T21:56:27.627Z,11.71
2019-04-03T21:58:58.190Z,11.73
2019-04-03T22:01:28.935Z,11.78
2019-04-03T22:04:00.754Z,11.78
2019-04-03T22:06:31.444Z,11.75
2019-04-03T22:09:01.950Z,11.64
2019-04-03T22:11:37.399Z,11.61
2019-04-03T22:14:10.694Z,11.60
2019-04-03T22:16:40.094Z,11.50
2019-04-03T22:19:10.571Z,11.51
2019-04-03T22:21:41.464Z,11.63
2019-04-03T22:24:12.774Z,11.48
2019-04-03T22:26:44.011Z,11.55
2019-04-03T22:29:19.621Z,11.57
2019-04-03T22:31:49.676Z,11.53
2019-04-03T22:34:20.355Z,11.60
2019-04-03T22:36:52.270Z,11.39
2019-04-03T22:39:23.054Z,11.30
2019-04-03T22:41:54.137Z,11.32
2019-04-03T22:44:26.103Z,11.41
2019-04-03T22:46:56.917Z,11.25
2019-04-03T22:49:27.581Z,11.27
2019-04-03T22:51:58.784Z,11.31
2019-04-03T22:54:29.265Z,11.26
2019-04-03T22:57:01.227Z,11.19
2019-04-03T22:59:32.771Z,11.02
2019-04-03T23:02:03.647Z,10.99
2019-04-03T23:04:34.089Z,10.95
2019-04-03T23:07:04.722Z,10.94
2019-04-03T23:09:35.316Z,10.85
2019-04-03T23:12:06.325Z,10.80
2019-04-03T23:14:38.388Z,10.77
2019-04-03T23:17:09.609Z,10.77
2019-04-03T23:19:40.295Z,10.84
2019-04-03T23:22:11.133Z,10.77
2019-04-03T23:24:41.936Z,10.70
2019-04-03T23:27:12.618Z,10.75
2019-04-03T23:29:44.893Z,10.71
2019-04-03T23:32:16.223Z,10.74
2019-04-03T23:34:49.369Z,10.60
2019-04-03T23:37:20.526Z,10.56
2019-04-03T23:39:51.221Z,10.51
2019-04-03T23:42:22.334Z,10.46
2019-04-03T23:44:53.094Z,10.37
2019-04-03T23:47:25.088Z,10.52
2019-04-03T23:49:55.664Z,10.49
2019-04-03T23:52:28.046Z,10.49
2019-04-03T23:54:58.553Z,10.49
2019-04-03T23:57:29.697Z,10.54
